sensor_id;sensor_type;location;lat;lon;timestamp;temperature;humidity
6379;DHT22;3222;48.858;10.128;2023-08-21T00:00:55;24.20;99.90
6379;DHT22;3222;48.858;10.128;2023-08-21T00:03:21;24.10;99.90
6379;DHT22;3222;48.858;10.128;2023-08-21T00:05:47;24.20;99.90
6379;DHT22;3222;48.858;10.128;2023-08-21T00:08:12;24.10;99.90
6379;DHT22;3222;48.858;10.128;2023-08-21T00:10:38;24.10;99.90
6379;DHT22;3222;48.858;10.128;2023-08-21T00:13:05;24.10;99.90
6379;DHT22;3222;48.858;10.128;2023-08-21T00:15:31;24.10;99.90
6379;DHT22;3222;48.858;10.128;2023-08-21T00:17:56;24.00;99.90
6379;DHT22;3222;48.858;10.128;2023-08-21T00:20:22;24.00;99.90
6379;DHT22;3222;48.858;10.128;2023-08-21T00:22:48;24.00;99.90
6379;DHT22;3222;48.858;10.128;2023-08-21T00:25:14;24.00;99.90
6379;DHT22;3222;48.858;10.128;2023-08-21T00:27:40;24.00;99.90
6379;DHT22;3222;48.858;10.128;2023-08-21T00:30:06;24.00;99.90
6379;DHT22;3222;48.858;10.128;2023-08-21T00:32:32;24.00;99.90
6379;DHT22;3222;48.858;10.128;2023-08-21T00:34:58;24.00;99.90
6379;DHT22;3222;48.858;10.128;2023-08-21T00:37:23;24.00;99.90
6379;DHT22;3222;48.858;10.128;2023-08-21T00:39:49;24.00;99.90
6379;DHT22;3222;48.858;10.128;2023-08-21T00:42:15;24.00;99.90
6379;DHT22;3222;48.858;10.128;2023-08-21T00:44:41;24.10;99.90
6379;DHT22;3222;48.858;10.128;2023-08-21T00:47:07;24.10;99.90
6379;DHT22;3222;48.858;10.128;2023-08-21T00:49:33;24.00;99.90
6379;DHT22;3222;48.858;10.128;2023-08-21T00:51:59;24.00;99.90
6379;DHT22;3222;48.858;10.128;2023-08-21T00:54:25;24.00;99.90
6379;DHT22;3222;48.858;10.128;2023-08-21T00:56:51;24.00;99.90
6379;DHT22;3222;48.858;10.128;2023-08-21T00:59:19;24.00;99.90
6379;DHT22;3222;48.858;10.128;2023-08-21T01:01:45;24.00;99.90
6379;DHT22;3222;48.858;10.128;2023-08-21T01:04:11;24.00;99.90
6379;DHT22;3222;48.858;10.128;2023-08-21T01:06:37;23.90;99.90
6379;DHT22;3222;48.858;10.128;2023-08-21T01:09:22;24.10;99.90
6379;DHT22;3222;48.858;10.128;2023-08-21T01:12:06;24.10;99.90
6379;DHT22;3222;48.858;10.128;2023-08-21T01:15:05;24.00;99.90
6379;DHT22;3222;48.858;10.128;2023-08-21T01:17:33;24.00;99.90
6379;DHT22;3222;48.858;10.128;2023-08-21T01:20:01;23.90;99.90
6379;DHT22;3222;48.858;10.128;2023-08-21T01:22:34;23.90;99.90
6379;DHT22;3222;48.858;10.128;2023-08-21T01:25:00;23.80;99.90
6379;DHT22;3222;48.858;10.128;2023-08-21T01:27:26;23.80;99.90
6379;DHT22;3222;48.858;10.128;2023-08-21T01:29:53;23.80;99.90
6379;DHT22;3222;48.858;10.128;2023-08-21T01:32:27;23.80;99.90
6379;DHT22;3222;48.858;10.128;2023-08-21T01:34:56;23.80;99.90
6379;DHT22;3222;48.858;10.128;2023-08-21T01:37:24;23.80;99.90
6379;DHT22;3222;48.858;10.128;2023-08-21T01:39:49;23.90;99.90
6379;DHT22;3222;48.858;10.128;2023-08-21T01:42:15;23.80;99.90
6379;DHT22;3222;48.858;10.128;2023-08-21T01:44:41;23.90;99.90
6379;DHT22;3222;48.858;10.128;2023-08-21T01:47:07;23.80;99.90
6379;DHT22;3222;48.858;10.128;2023-08-21T01:49:32;23.80;99.90
6379;DHT22;3222;48.858;10.128;2023-08-21T01:51:58;23.70;99.90
6379;DHT22;3222;48.858;10.128;2023-08-21T01:54:24;23.70;99.90
6379;DHT22;3222;48.858;10.128;2023-08-21T01:56:50;23.70;99.90
6379;DHT22;3222;48.858;10.128;2023-08-21T01:59:16;23.70;99.90
6379;DHT22;3222;48.858;10.128;2023-08-21T02:01:42;23.70;99.90
6379;DHT22;3222;48.858;10.128;2023-08-21T02:04:08;23.60;99.90
6379;DHT22;3222;48.858;10.128;2023-08-21T02:06:34;23.60;99.90
6379;DHT22;3222;48.858;10.128;2023-08-21T02:08:59;23.60;99.90
6379;DHT22;3222;48.858;10.128;2023-08-21T02:11:25;23.50;99.90
6379;DHT22;3222;48.858;10.128;2023-08-21T02:13:52;23.50;99.90
6379;DHT22;3222;48.858;10.128;2023-08-21T02:16:17;23.50;99.90
6379;DHT22;3222;48.858;10.128;2023-08-21T02:18:43;23.40;99.90
6379;DHT22;3222;48.858;10.128;2023-08-21T02:21:09;23.40;99.90
6379;DHT22;3222;48.858;10.128;2023-08-21T02:23:34;23.40;99.90
6379;DHT22;3222;48.858;10.128;2023-08-21T02:26:00;23.40;99.90
6379;DHT22;3222;48.858;10.128;2023-08-21T02:28:26;23.40;99.90
6379;DHT22;3222;48.858;10.128;2023-08-21T02:30:51;23.40;99.90
6379;DHT22;3222;48.858;10.128;2023-08-21T02:33:17;23.40;99.90
6379;DHT22;3222;48.858;10.128;2023-08-21T02:35:43;23.40;99.90
6379;DHT22;3222;48.858;10.128;2023-08-21T02:38:09;23.30;99.90
6379;DHT22;3222;48.858;10.128;2023-08-21T02:40:35;23.30;99.90
6379;DHT22;3222;48.858;10.128;2023-08-21T02:43:01;23.30;99.90
6379;DHT22;3222;48.858;10.128;2023-08-21T02:45:26;23.30;99.90
6379;DHT22;3222;48.858;10.128;2023-08-21T02:47:52;23.20;99.90
6379;DHT22;3222;48.858;10.128;2023-08-21T02:50:18;23.20;99.90
6379;DHT22;3222;48.858;10.128;2023-08-21T02:52:43;23.20;99.90
6379;DHT22;3222;48.858;10.128;2023-08-21T02:55:09;23.20;99.90
6379;DHT22;3222;48.858;10.128;2023-08-21T02:57:35;23.20;99.90
6379;DHT22;3222;48.858;10.128;2023-08-21T03:00:00;23.20;99.90
6379;DHT22;3222;48.858;10.128;2023-08-21T03:02:26;23.10;99.90
6379;DHT22;3222;48.858;10.128;2023-08-21T03:04:52;23.10;99.90
6379;DHT22;3222;48.858;10.128;2023-08-21T03:07:18;23.10;99.90
6379;DHT22;3222;48.858;10.128;2023-08-21T03:09:46;23.10;99.90
6379;DHT22;3222;48.858;10.128;2023-08-21T03:12:15;23.10;99.90
6379;DHT22;3222;48.858;10.128;2023-08-21T03:14:41;23.10;99.90
6379;DHT22;3222;48.858;10.128;2023-08-21T03:17:07;23.10;99.90
6379;DHT22;3222;48.858;10.128;2023-08-21T03:19:32;23.20;99.90
6379;DHT22;3222;48.858;10.128;2023-08-21T03:21:58;23.20;99.90
6379;DHT22;3222;48.858;10.128;2023-08-21T03:24:24;23.20;99.90
6379;DHT22;3222;48.858;10.128;2023-08-21T03:26:49;23.20;99.90
6379;DHT22;3222;48.858;10.128;2023-08-21T03:29:15;23.20;99.90
6379;DHT22;3222;48.858;10.128;2023-08-21T03:31:41;23.20;99.90
6379;DHT22;3222;48.858;10.128;2023-08-21T03:34:08;23.10;99.90
6379;DHT22;3222;48.858;10.128;2023-08-21T03:36:34;23.10;99.90
6379;DHT22;3222;48.858;10.128;2023-08-21T03:39:03;23.00;99.90
6379;DHT22;3222;48.858;10.128;2023-08-21T03:41:32;23.00;99.90
6379;DHT22;3222;48.858;10.128;2023-08-21T03:43:59;23.00;99.90
6379;DHT22;3222;48.858;10.128;2023-08-21T03:46:25;23.00;99.90
6379;DHT22;3222;48.858;10.128;2023-08-21T03:48:51;23.00;99.90
6379;DHT22;3222;48.858;10.128;2023-08-21T03:51:17;23.00;99.90
6379;DHT22;3222;48.858;10.128;2023-08-21T03:53:43;23.00;99.90
6379;DHT22;3222;48.858;10.128;2023-08-21T03:56:08;22.90;99.90
6379;DHT22;3222;48.858;10.128;2023-08-21T03:58:35;22.90;99.90
6379;DHT22;3222;48.858;10.128;2023-08-21T04:01:00;22.90;99.90
6379;DHT22;3222;48.858;10.128;2023-08-21T04:03:26;22.80;99.90
6379;DHT22;3222;48.858;10.128;2023-08-21T04:05:53;22.80;99.90
6379;DHT22;3222;48.858;10.128;2023-08-21T04:08:20;22.80;99.90
6379;DHT22;3222;48.858;10.128;2023-08-21T04:10:45;22.80;99.90
6379;DHT22;3222;48.858;10.128;2023-08-21T04:13:11;22.70;99.90
6379;DHT22;3222;48.858;10.128;2023-08-21T04:15:37;22.70;99.90
6379;DHT22;3222;48.858;10.128;2023-08-21T04:18:04;22.70;99.90
6379;DHT22;3222;48.858;10.128;2023-08-21T04:20:31;22.70;99.90
6379;DHT22;3222;48.858;10.128;2023-08-21T04:22:56;22.70;99.90
6379;DHT22;3222;48.858;10.128;2023-08-21T04:25:22;22.70;99.90
6379;DHT22;3222;48.858;10.128;2023-08-21T04:27:48;22.70;99.90
6379;DHT22;3222;48.858;10.128;2023-08-21T04:30:14;22.60;99.90
6379;DHT22;3222;48.858;10.128;2023-08-21T04:32:40;22.70;99.90
6379;DHT22;3222;48.858;10.128;2023-08-21T04:35:08;22.60;99.90
6379;DHT22;3222;48.858;10.128;2023-08-21T04:37:34;22.60;99.90
6379;DHT22;3222;48.858;10.128;2023-08-21T04:40:01;22.60;99.90
6379;DHT22;3222;48.858;10.128;2023-08-21T04:42:27;22.50;99.90
6379;DHT22;3222;48.858;10.128;2023-08-21T04:44:53;22.50;99.90
6379;DHT22;3222;48.858;10.128;2023-08-21T04:49:51;22.50;99.90
6379;DHT22;3222;48.858;10.128;2023-08-21T04:52:17;22.50;99.90
6379;DHT22;3222;48.858;10.128;2023-08-21T04:54:43;22.40;99.90
6379;DHT22;3222;48.858;10.128;2023-08-21T04:57:09;22.40;99.90
6379;DHT22;3222;48.858;10.128;2023-08-21T04:59:36;22.50;99.90
6379;DHT22;3222;48.858;10.128;2023-08-21T05:02:02;22.50;99.90
6379;DHT22;3222;48.858;10.128;2023-08-21T05:04:28;22.40;99.90
6379;DHT22;3222;48.858;10.128;2023-08-21T05:06:55;22.50;99.90
6379;DHT22;3222;48.858;10.128;2023-08-21T05:09:21;22.40;99.90
6379;DHT22;3222;48.858;10.128;2023-08-21T05:11:47;22.40;99.90
6379;DHT22;3222;48.858;10.128;2023-08-21T05:14:13;22.40;99.90
6379;DHT22;3222;48.858;10.128;2023-08-21T05:16:39;22.40;99.90
6379;DHT22;3222;48.858;10.128;2023-08-21T05:19:05;22.40;99.90
6379;DHT22;3222;48.858;10.128;2023-08-21T05:21:31;22.40;99.90
6379;DHT22;3222;48.858;10.128;2023-08-21T05:23:56;22.40;99.90
6379;DHT22;3222;48.858;10.128;2023-08-21T05:26:22;22.40;99.90
6379;DHT22;3222;48.858;10.128;2023-08-21T05:28:48;22.40;99.90
6379;DHT22;3222;48.858;10.128;2023-08-21T05:31:13;22.40;99.90
6379;DHT22;3222;48.858;10.128;2023-08-21T05:33:50;22.40;99.90
6379;DHT22;3222;48.858;10.128;2023-08-21T05:36:16;22.40;99.90
6379;DHT22;3222;48.858;10.128;2023-08-21T05:38:42;22.40;99.90
6379;DHT22;3222;48.858;10.128;2023-08-21T05:41:07;22.40;99.90
6379;DHT22;3222;48.858;10.128;2023-08-21T05:43:33;22.40;99.90
6379;DHT22;3222;48.858;10.128;2023-08-21T05:46:00;22.50;99.90
6379;DHT22;3222;48.858;10.128;2023-08-21T05:48:25;22.50;99.90
6379;DHT22;3222;48.858;10.128;2023-08-21T05:50:52;22.50;99.90
6379;DHT22;3222;48.858;10.128;2023-08-21T05:53:18;22.50;99.90
6379;DHT22;3222;48.858;10.128;2023-08-21T05:55:43;22.50;99.90
6379;DHT22;3222;48.858;10.128;2023-08-21T05:58:10;22.50;99.90
6379;DHT22;3222;48.858;10.128;2023-08-21T06:00:37;22.50;99.90
6379;DHT22;3222;48.858;10.128;2023-08-21T06:03:03;22.50;99.90
6379;DHT22;3222;48.858;10.128;2023-08-21T06:05:51;22.60;99.90
6379;DHT22;3222;48.858;10.128;2023-08-21T06:08:17;22.60;99.90
6379;DHT22;3222;48.858;10.128;2023-08-21T06:10:43;22.70;99.90
6379;DHT22;3222;48.858;10.128;2023-08-21T06:13:09;22.80;99.90
6379;DHT22;3222;48.858;10.128;2023-08-21T06:15:35;22.90;99.90
6379;DHT22;3222;48.858;10.128;2023-08-21T06:18:01;23.10;99.90
6379;DHT22;3222;48.858;10.128;2023-08-21T06:20:27;23.10;99.90
6379;DHT22;3222;48.858;10.128;2023-08-21T06:22:52;23.00;99.90
6379;DHT22;3222;48.858;10.128;2023-08-21T06:25:18;23.10;99.90
6379;DHT22;3222;48.858;10.128;2023-08-21T06:27:45;23.10;99.90
6379;DHT22;3222;48.858;10.128;2023-08-21T06:30:11;23.20;99.90
6379;DHT22;3222;48.858;10.128;2023-08-21T06:32:36;23.20;99.90
6379;DHT22;3222;48.858;10.128;2023-08-21T06:35:02;23.20;99.90
6379;DHT22;3222;48.858;10.128;2023-08-21T06:37:28;23.40;99.90
6379;DHT22;3222;48.858;10.128;2023-08-21T06:39:54;23.40;99.90
6379;DHT22;3222;48.858;10.128;2023-08-21T06:42:19;23.50;99.90
6379;DHT22;3222;48.858;10.128;2023-08-21T06:44:49;23.50;99.90
6379;DHT22;3222;48.858;10.128;2023-08-21T06:47:14;23.40;99.90
6379;DHT22;3222;48.858;10.128;2023-08-21T06:49:40;23.50;99.90
6379;DHT22;3222;48.858;10.128;2023-08-21T06:52:06;23.50;99.90
6379;DHT22;3222;48.858;10.128;2023-08-21T06:54:31;23.60;99.90
6379;DHT22;3222;48.858;10.128;2023-08-21T06:56:57;23.50;99.90
6379;DHT22;3222;48.858;10.128;2023-08-21T06:59:23;23.50;99.90
6379;DHT22;3222;48.858;10.128;2023-08-21T07:01:49;23.60;99.90
6379;DHT22;3222;48.858;10.128;2023-08-21T07:04:16;23.60;99.90
6379;DHT22;3222;48.858;10.128;2023-08-21T07:06:42;23.50;99.90
6379;DHT22;3222;48.858;10.128;2023-08-21T07:09:07;23.60;99.90
6379;DHT22;3222;48.858;10.128;2023-08-21T07:11:33;23.60;99.90
6379;DHT22;3222;48.858;10.128;2023-08-21T07:13:59;23.70;99.90
6379;DHT22;3222;48.858;10.128;2023-08-21T07:16:25;23.80;99.90
6379;DHT22;3222;48.858;10.128;2023-08-21T07:18:51;23.70;99.90
6379;DHT22;3222;48.858;10.128;2023-08-21T07:21:17;23.70;99.90
6379;DHT22;3222;48.858;10.128;2023-08-21T07:23:43;23.70;99.90
6379;DHT22;3222;48.858;10.128;2023-08-21T07:26:08;23.80;99.90
6379;DHT22;3222;48.858;10.128;2023-08-21T07:28:34;23.90;99.90
6379;DHT22;3222;48.858;10.128;2023-08-21T07:31:01;23.90;99.90
6379;DHT22;3222;48.858;10.128;2023-08-21T07:33:27;24.00;99.90
6379;DHT22;3222;48.858;10.128;2023-08-21T07:36:02;24.00;99.90
6379;DHT22;3222;48.858;10.128;2023-08-21T07:38:29;24.00;99.90
6379;DHT22;3222;48.858;10.128;2023-08-21T07:41:06;24.00;99.90
6379;DHT22;3222;48.858;10.128;2023-08-21T07:43:33;24.10;99.90
6379;DHT22;3222;48.858;10.128;2023-08-21T07:46:03;24.20;99.90
6379;DHT22;3222;48.858;10.128;2023-08-21T07:48:29;24.20;99.90
6379;DHT22;3222;48.858;10.128;2023-08-21T07:50:55;24.30;99.90
6379;DHT22;3222;48.858;10.128;2023-08-21T07:53:20;24.40;99.90
6379;DHT22;3222;48.858;10.128;2023-08-21T07:55:46;24.40;99.90
6379;DHT22;3222;48.858;10.128;2023-08-21T07:58:12;24.40;99.90
6379;DHT22;3222;48.858;10.128;2023-08-21T08:00:38;24.40;99.90
6379;DHT22;3222;48.858;10.128;2023-08-21T08:03:05;24.50;99.90
6379;DHT22;3222;48.858;10.128;2023-08-21T08:05:31;24.50;99.90
6379;DHT22;3222;48.858;10.128;2023-08-21T08:07:57;24.50;99.90
6379;DHT22;3222;48.858;10.128;2023-08-21T08:10:24;24.50;99.90
6379;DHT22;3222;48.858;10.128;2023-08-21T08:12:50;24.70;99.90
6379;DHT22;3222;48.858;10.128;2023-08-21T08:15:15;24.70;99.90
6379;DHT22;3222;48.858;10.128;2023-08-21T08:17:41;24.70;99.90
6379;DHT22;3222;48.858;10.128;2023-08-21T08:20:07;24.70;99.90
6379;DHT22;3222;48.858;10.128;2023-08-21T08:22:33;24.80;99.90
6379;DHT22;3222;48.858;10.128;2023-08-21T08:24:58;24.80;99.90
6379;DHT22;3222;48.858;10.128;2023-08-21T08:27:24;24.80;99.90
6379;DHT22;3222;48.858;10.128;2023-08-21T08:29:50;24.80;99.90
6379;DHT22;3222;48.858;10.128;2023-08-21T08:32:16;24.80;99.90
6379;DHT22;3222;48.858;10.128;2023-08-21T08:34:41;24.90;99.90
6379;DHT22;3222;48.858;10.128;2023-08-21T08:37:07;25.00;99.90
6379;DHT22;3222;48.858;10.128;2023-08-21T08:39:33;25.00;99.90
6379;DHT22;3222;48.858;10.128;2023-08-21T08:42:05;25.10;99.90
6379;DHT22;3222;48.858;10.128;2023-08-21T08:44:35;25.10;99.90
6379;DHT22;3222;48.858;10.128;2023-08-21T08:47:01;25.10;99.90
6379;DHT22;3222;48.858;10.128;2023-08-21T08:49:27;25.20;99.90
6379;DHT22;3222;48.858;10.128;2023-08-21T08:51:54;25.20;99.90
6379;DHT22;3222;48.858;10.128;2023-08-21T08:54:21;25.30;99.90
6379;DHT22;3222;48.858;10.128;2023-08-21T08:56:47;25.40;99.90
6379;DHT22;3222;48.858;10.128;2023-08-21T08:59:13;25.50;99.90
6379;DHT22;3222;48.858;10.128;2023-08-21T09:01:40;25.60;99.90
6379;DHT22;3222;48.858;10.128;2023-08-21T09:04:06;25.60;99.90
6379;DHT22;3222;48.858;10.128;2023-08-21T09:06:33;25.60;99.90
6379;DHT22;3222;48.858;10.128;2023-08-21T09:08:59;25.60;99.90
6379;DHT22;3222;48.858;10.128;2023-08-21T09:11:25;25.60;99.90
6379;DHT22;3222;48.858;10.128;2023-08-21T09:13:52;25.60;99.90
6379;DHT22;3222;48.858;10.128;2023-08-21T09:16:19;25.70;99.90
6379;DHT22;3222;48.858;10.128;2023-08-21T09:18:53;25.70;99.90
6379;DHT22;3222;48.858;10.128;2023-08-21T09:21:20;25.60;99.90
6379;DHT22;3222;48.858;10.128;2023-08-21T09:23:47;25.70;99.90
6379;DHT22;3222;48.858;10.128;2023-08-21T09:26:20;25.80;99.90
6379;DHT22;3222;48.858;10.128;2023-08-21T09:28:47;25.80;99.90
6379;DHT22;3222;48.858;10.128;2023-08-21T09:31:13;25.80;99.90
6379;DHT22;3222;48.858;10.128;2023-08-21T09:33:39;25.80;99.90
6379;DHT22;3222;48.858;10.128;2023-08-21T09:36:05;25.80;99.90
6379;DHT22;3222;48.858;10.128;2023-08-21T09:38:31;25.90;99.90
6379;DHT22;3222;48.858;10.128;2023-08-21T09:40:59;25.90;99.90
6379;DHT22;3222;48.858;10.128;2023-08-21T09:43:24;26.00;99.90
6379;DHT22;3222;48.858;10.128;2023-08-21T09:45:52;26.10;99.90
6379;DHT22;3222;48.858;10.128;2023-08-21T09:48:22;26.10;99.90
6379;DHT22;3222;48.858;10.128;2023-08-21T09:50:53;26.20;99.90
6379;DHT22;3222;48.858;10.128;2023-08-21T09:53:20;26.20;99.90
6379;DHT22;3222;48.858;10.128;2023-08-21T09:55:48;26.10;99.90
6379;DHT22;3222;48.858;10.128;2023-08-21T09:58:16;26.20;99.90
6379;DHT22;3222;48.858;10.128;2023-08-21T10:00:43;26.20;99.90
6379;DHT22;3222;48.858;10.128;2023-08-21T10:03:10;26.20;99.90
6379;DHT22;3222;48.858;10.128;2023-08-21T10:05:38;26.30;99.90
6379;DHT22;3222;48.858;10.128;2023-08-21T10:08:06;26.30;99.90
6379;DHT22;3222;48.858;10.128;2023-08-21T10:10:36;26.40;99.90
6379;DHT22;3222;48.858;10.128;2023-08-21T10:13:03;26.50;99.90
6379;DHT22;3222;48.858;10.128;2023-08-21T10:15:29;26.50;99.90
6379;DHT22;3222;48.858;10.128;2023-08-21T10:17:56;26.60;99.90
6379;DHT22;3222;48.858;10.128;2023-08-21T10:20:24;26.50;99.90
6379;DHT22;3222;48.858;10.128;2023-08-21T10:22:54;26.50;99.90
6379;DHT22;3222;48.858;10.128;2023-08-21T10:25:24;26.70;99.90
6379;DHT22;3222;48.858;10.128;2023-08-21T10:28:00;26.80;99.90
6379;DHT22;3222;48.858;10.128;2023-08-21T10:30:29;26.70;99.90
6379;DHT22;3222;48.858;10.128;2023-08-21T10:32:59;26.70;99.90
6379;DHT22;3222;48.858;10.128;2023-08-21T10:35:29;26.70;99.90
6379;DHT22;3222;48.858;10.128;2023-08-21T10:38:15;26.80;99.90
6379;DHT22;3222;48.858;10.128;2023-08-21T10:41:05;26.80;99.90
6379;DHT22;3222;48.858;10.128;2023-08-21T10:43:44;26.80;99.90
6379;DHT22;3222;48.858;10.128;2023-08-21T10:46:11;26.80;99.90
6379;DHT22;3222;48.858;10.128;2023-08-21T10:48:38;26.80;99.90
6379;DHT22;3222;48.858;10.128;2023-08-21T10:51:06;26.80;99.90
6379;DHT22;3222;48.858;10.128;2023-08-21T10:53:33;27.00;99.90
6379;DHT22;3222;48.858;10.128;2023-08-21T10:56:03;27.10;99.90
6379;DHT22;3222;48.858;10.128;2023-08-21T10:58:43;27.10;99.90
6379;DHT22;3222;48.858;10.128;2023-08-21T11:01:13;27.10;99.90
6379;DHT22;3222;48.858;10.128;2023-08-21T11:03:39;27.10;99.90
6379;DHT22;3222;48.858;10.128;2023-08-21T11:06:09;27.20;99.90
6379;DHT22;3222;48.858;10.128;2023-08-21T11:08:36;27.10;99.90
6379;DHT22;3222;48.858;10.128;2023-08-21T11:11:03;27.10;99.90
6379;DHT22;3222;48.858;10.128;2023-08-21T11:13:29;27.10;99.90
6379;DHT22;3222;48.858;10.128;2023-08-21T11:16:00;27.10;99.90
6379;DHT22;3222;48.858;10.128;2023-08-21T11:18:36;27.10;99.90
6379;DHT22;3222;48.858;10.128;2023-08-21T11:21:09;27.10;99.90
6379;DHT22;3222;48.858;10.128;2023-08-21T11:23:37;27.10;99.90
6379;DHT22;3222;48.858;10.128;2023-08-21T11:26:03;27.20;99.90
6379;DHT22;3222;48.858;10.128;2023-08-21T11:28:30;27.10;99.90
6379;DHT22;3222;48.858;10.128;2023-08-21T11:30:57;27.20;99.90
6379;DHT22;3222;48.858;10.128;2023-08-21T11:33:23;27.20;99.90
6379;DHT22;3222;48.858;10.128;2023-08-21T11:35:49;27.20;99.90
6379;DHT22;3222;48.858;10.128;2023-08-21T11:38:19;27.40;99.90
6379;DHT22;3222;48.858;10.128;2023-08-21T11:40:52;27.50;99.90
6379;DHT22;3222;48.858;10.128;2023-08-21T11:43:18;27.50;99.90
6379;DHT22;3222;48.858;10.128;2023-08-21T11:45:46;27.40;99.90
6379;DHT22;3222;48.858;10.128;2023-08-21T11:48:11;27.40;99.90
6379;DHT22;3222;48.858;10.128;2023-08-21T11:50:37;27.50;99.90
6379;DHT22;3222;48.858;10.128;2023-08-21T11:53:03;27.50;99.90
6379;DHT22;3222;48.858;10.128;2023-08-21T11:55:31;27.60;99.90
6379;DHT22;3222;48.858;10.128;2023-08-21T11:57:56;27.70;99.90
6379;DHT22;3222;48.858;10.128;2023-08-21T12:00:27;27.90;99.90
6379;DHT22;3222;48.858;10.128;2023-08-21T12:03:00;28.00;99.90
6379;DHT22;3222;48.858;10.128;2023-08-21T12:05:27;28.00;99.90
6379;DHT22;3222;48.858;10.128;2023-08-21T12:07:54;28.00;99.90
6379;DHT22;3222;48.858;10.128;2023-08-21T12:10:24;28.10;99.90
6379;DHT22;3222;48.858;10.128;2023-08-21T12:12:50;28.00;99.90
6379;DHT22;3222;48.858;10.128;2023-08-21T12:15:15;28.00;99.90
6379;DHT22;3222;48.858;10.128;2023-08-21T12:17:41;28.10;99.90
6379;DHT22;3222;48.858;10.128;2023-08-21T12:20:07;28.10;99.90
6379;DHT22;3222;48.858;10.128;2023-08-21T12:22:39;28.10;99.90
6379;DHT22;3222;48.858;10.128;2023-08-21T12:25:06;28.20;99.90
6379;DHT22;3222;48.858;10.128;2023-08-21T12:27:32;28.30;99.90
6379;DHT22;3222;48.858;10.128;2023-08-21T12:29:58;28.30;99.90
6379;DHT22;3222;48.858;10.128;2023-08-21T12:32:24;28.20;99.90
6379;DHT22;3222;48.858;10.128;2023-08-21T12:34:49;28.20;99.90
6379;DHT22;3222;48.858;10.128;2023-08-21T12:37:15;28.20;99.90
6379;DHT22;3222;48.858;10.128;2023-08-21T12:39:40;28.20;99.90
6379;DHT22;3222;48.858;10.128;2023-08-21T12:42:06;28.40;99.90
6379;DHT22;3222;48.858;10.128;2023-08-21T12:44:33;28.40;99.90
6379;DHT22;3222;48.858;10.128;2023-08-21T12:46:59;28.40;99.90
6379;DHT22;3222;48.858;10.128;2023-08-21T12:49:25;28.50;99.90
6379;DHT22;3222;48.858;10.128;2023-08-21T12:51:51;28.50;99.90
6379;DHT22;3222;48.858;10.128;2023-08-21T12:54:16;28.50;99.90
6379;DHT22;3222;48.858;10.128;2023-08-21T12:56:42;28.50;99.90
6379;DHT22;3222;48.858;10.128;2023-08-21T12:59:08;28.60;99.90
6379;DHT22;3222;48.858;10.128;2023-08-21T13:01:33;28.60;99.90
6379;DHT22;3222;48.858;10.128;2023-08-21T13:04:01;28.60;99.90
6379;DHT22;3222;48.858;10.128;2023-08-21T13:06:27;28.60;99.90
6379;DHT22;3222;48.858;10.128;2023-08-21T13:08:52;28.60;99.90
6379;DHT22;3222;48.858;10.128;2023-08-21T13:11:19;28.80;99.90
6379;DHT22;3222;48.858;10.128;2023-08-21T13:13:45;28.80;99.90
6379;DHT22;3222;48.858;10.128;2023-08-21T13:16:11;28.70;99.90
6379;DHT22;3222;48.858;10.128;2023-08-21T13:18:36;28.70;99.90
6379;DHT22;3222;48.858;10.128;2023-08-21T13:21:02;28.80;99.90
6379;DHT22;3222;48.858;10.128;2023-08-21T13:23:29;29.00;99.90
6379;DHT22;3222;48.858;10.128;2023-08-21T13:25:56;29.00;99.90
6379;DHT22;3222;48.858;10.128;2023-08-21T13:28:23;29.20;99.90
6379;DHT22;3222;48.858;10.128;2023-08-21T13:30:48;29.20;99.90
6379;DHT22;3222;48.858;10.128;2023-08-21T13:33:15;29.10;99.90
6379;DHT22;3222;48.858;10.128;2023-08-21T13:35:44;29.10;99.90
6379;DHT22;3222;48.858;10.128;2023-08-21T13:38:09;29.30;99.90
6379;DHT22;3222;48.858;10.128;2023-08-21T13:40:35;29.40;99.90
6379;DHT22;3222;48.858;10.128;2023-08-21T13:43:01;29.50;99.90
6379;DHT22;3222;48.858;10.128;2023-08-21T13:45:26;29.50;99.90
6379;DHT22;3222;48.858;10.128;2023-08-21T13:47:52;29.50;99.90
6379;DHT22;3222;48.858;10.128;2023-08-21T13:50:19;29.40;99.90
6379;DHT22;3222;48.858;10.128;2023-08-21T13:52:46;29.50;99.90
6379;DHT22;3222;48.858;10.128;2023-08-21T13:55:13;29.70;99.90
6379;DHT22;3222;48.858;10.128;2023-08-21T13:57:39;29.70;99.90
6379;DHT22;3222;48.858;10.128;2023-08-21T14:00:06;29.70;99.90
6379;DHT22;3222;48.858;10.128;2023-08-21T14:02:36;29.70;99.90
6379;DHT22;3222;48.858;10.128;2023-08-21T14:05:02;29.80;99.90
6379;DHT22;3222;48.858;10.128;2023-08-21T14:07:32;29.80;99.90
6379;DHT22;3222;48.858;10.128;2023-08-21T14:09:58;29.90;99.90
6379;DHT22;3222;48.858;10.128;2023-08-21T14:12:24;29.80;99.90
6379;DHT22;3222;48.858;10.128;2023-08-21T14:14:50;29.80;99.90
6379;DHT22;3222;48.858;10.128;2023-08-21T14:17:16;29.80;99.90
6379;DHT22;3222;48.858;10.128;2023-08-21T14:19:42;29.80;99.90
6379;DHT22;3222;48.858;10.128;2023-08-21T14:22:07;29.80;99.90
6379;DHT22;3222;48.858;10.128;2023-08-21T14:24:33;29.80;99.90
6379;DHT22;3222;48.858;10.128;2023-08-21T14:26:59;29.80;99.90
6379;DHT22;3222;48.858;10.128;2023-08-21T14:29:24;30.00;99.90
6379;DHT22;3222;48.858;10.128;2023-08-21T14:31:50;30.20;99.90
6379;DHT22;3222;48.858;10.128;2023-08-21T14:34:19;30.20;99.90
6379;DHT22;3222;48.858;10.128;2023-08-21T14:36:47;30.30;99.90
6379;DHT22;3222;48.858;10.128;2023-08-21T14:39:13;30.20;99.90
6379;DHT22;3222;48.858;10.128;2023-08-21T14:41:41;30.20;99.90
6379;DHT22;3222;48.858;10.128;2023-08-21T14:44:07;30.20;99.90
6379;DHT22;3222;48.858;10.128;2023-08-21T14:46:33;30.10;99.90
6379;DHT22;3222;48.858;10.128;2023-08-21T14:48:59;30.20;99.90
6379;DHT22;3222;48.858;10.128;2023-08-21T14:51:28;30.30;99.90
6379;DHT22;3222;48.858;10.128;2023-08-21T14:53:53;30.30;99.90
6379;DHT22;3222;48.858;10.128;2023-08-21T14:56:22;30.40;99.90
6379;DHT22;3222;48.858;10.128;2023-08-21T14:58:48;30.50;99.90
6379;DHT22;3222;48.858;10.128;2023-08-21T15:01:14;30.60;99.90
6379;DHT22;3222;48.858;10.128;2023-08-21T15:03:41;30.60;99.90
6379;DHT22;3222;48.858;10.128;2023-08-21T15:06:07;30.50;99.90
6379;DHT22;3222;48.858;10.128;2023-08-21T15:08:33;30.30;99.90
6379;DHT22;3222;48.858;10.128;2023-08-21T15:10:59;30.20;99.90
6379;DHT22;3222;48.858;10.128;2023-08-21T15:13:24;30.20;99.90
6379;DHT22;3222;48.858;10.128;2023-08-21T15:15:50;30.30;99.90
6379;DHT22;3222;48.858;10.128;2023-08-21T15:18:16;30.30;99.90
6379;DHT22;3222;48.858;10.128;2023-08-21T15:20:41;30.30;99.90
6379;DHT22;3222;48.858;10.128;2023-08-21T15:23:07;30.40;99.90
6379;DHT22;3222;48.858;10.128;2023-08-21T15:25:33;30.50;99.90
6379;DHT22;3222;48.858;10.128;2023-08-21T15:27:59;30.50;99.90
6379;DHT22;3222;48.858;10.128;2023-08-21T15:30:25;30.50;99.90
6379;DHT22;3222;48.858;10.128;2023-08-21T15:32:50;30.60;99.90
6379;DHT22;3222;48.858;10.128;2023-08-21T15:35:16;30.80;99.90
6379;DHT22;3222;48.858;10.128;2023-08-21T15:37:42;30.90;99.90
6379;DHT22;3222;48.858;10.128;2023-08-21T15:40:08;31.00;99.90
6379;DHT22;3222;48.858;10.128;2023-08-21T15:42:34;30.90;99.90
6379;DHT22;3222;48.858;10.128;2023-08-21T15:44:59;30.90;99.90